地図

経路データ

SID SEASON NUMBER BASIN SUBBASIN NAME ISO_TIME NATURE LAT LON WMO_WIND WMO_PRES WMO_AGENCY TRACK_TYPE DIST2LAND LANDFALL IFLAG USA_AGENCY USA_ATCF_ID USA_LAT USA_LON USA_RECORD USA_STATUS USA_WIND USA_PRES USA_SSHS USA_R34_NE USA_R34_SE USA_R34_SW USA_R34_NW USA_R50_NE USA_R50_SE USA_R50_SW USA_R50_NW USA_R64_NE USA_R64_SE USA_R64_SW USA_R64_NW USA_POCI USA_ROCI USA_RMW USA_EYE TOKYO_LAT TOKYO_LON TOKYO_GRADE TOKYO_WIND TOKYO_PRES TOKYO_R50_DIR TOKYO_R50_LONG TOKYO_R50_SHORT TOKYO_R30_DIR TOKYO_R30_LONG TOKYO_R30_SHORT TOKYO_LAND CMA_LAT CMA_LON CMA_CAT CMA_WIND CMA_PRES HKO_LAT HKO_LON HKO_CAT HKO_WIND HKO_PRES NEWDELHI_LAT NEWDELHI_LON NEWDELHI_GRADE NEWDELHI_WIND NEWDELHI_PRES NEWDELHI_CI NEWDELHI_DP NEWDELHI_POCI REUNION_LAT REUNION_LON REUNION_TYPE REUNION_WIND REUNION_PRES REUNION_TNUM REUNION_CI REUNION_RMW REUNION_R34_NE REUNION_R34_SE REUNION_R34_SW REUNION_R34_NW REUNION_R50_NE REUNION_R50_SE REUNION_R50_SW REUNION_R50_NW REUNION_R64_NE REUNION_R64_SE REUNION_R64_SW REUNION_R64_NW BOM_LAT BOM_LON BOM_TYPE BOM_WIND BOM_PRES BOM_TNUM BOM_CI BOM_RMW BOM_R34_NE BOM_R34_SE BOM_R34_SW BOM_R34_NW BOM_R50_NE BOM_R50_SE BOM_R50_SW BOM_R50_NW BOM_R64_NE BOM_R64_SE BOM_R64_SW BOM_R64_NW BOM_ROCI BOM_POCI BOM_EYE BOM_POS_METHOD BOM_PRES_METHOD NADI_LAT NADI_LON NADI_CAT NADI_WIND NADI_PRES WELLINGTON_LAT WELLINGTON_LON WELLINGTON_WIND WELLINGTON_PRES DS824_LAT DS824_LON DS824_STAGE DS824_WIND DS824_PRES TD9636_LAT TD9636_LON TD9636_STAGE TD9636_WIND TD9636_PRES TD9635_LAT TD9635_LON TD9635_WIND TD9635_PRES TD9635_ROCI NEUMANN_LAT NEUMANN_LON NEUMANN_CLASS NEUMANN_WIND NEUMANN_PRES MLC_LAT MLC_LON MLC_CLASS MLC_WIND MLC_PRES USA_GUST BOM_GUST BOM_GUST_PER REUNION_GUST REUNION_GUST_PER USA_SEAHGT USA_SEARAD_NE USA_SEARAD_SE USA_SEARAD_SW USA_SEARAD_NW STORM_SPEED STORM_DIR
2021307N09275 2021 39 EP MM TERRY 2021-11-02 18:00:00 DS 8.80000 -84.9000 20 1009 hurdat_epa main 92 90 O_____________ hurdat_epa EP182021 8.80000 -84.9000 LO 20 1009 -3 1011 180 60 5 244
2021307N09275 2021 39 EP MM TERRY 2021-11-02 21:00:00 DS 8.68252 -85.1400 main 100 100 P_____________ EP182021 8.68252 -85.1400 LO 22 1008 -3 1011 165 55 5 248
2021307N09275 2021 39 EP MM TERRY 2021-11-03 00:00:00 DS 8.60000 -85.4000 25 1008 hurdat_epa main 116 116 O_____________ hurdat_epa EP182021 8.60000 -85.4000 LO 25 1008 -3 1011 150 50 6 259
2021307N09275 2021 39 EP MM TERRY 2021-11-03 03:00:00 DS 8.57749 -85.6925 main 129 129 P_____________ EP182021 8.57749 -85.6925 LO 25 1007 -3 1011 150 47 6 270
2021307N09275 2021 39 EP MM TERRY 2021-11-03 06:00:00 DS 8.60000 -86.0000 25 1007 hurdat_epa main 149 149 O_____________ hurdat_epa EP182021 8.60000 -86.0000 LO 25 1007 -3 1011 150 45 6 277
2021307N09275 2021 39 EP MM TERRY 2021-11-03 09:00:00 DS 8.64994 -86.2850 main 159 149 P_____________ EP182021 8.64994 -86.2850 LO 25 1007 -3 1011 150 47 6 280
2021307N09275 2021 39 EP MM TERRY 2021-11-03 12:00:00 DS 8.70000 -86.6000 25 1007 hurdat_epa main 166 166 O_____________ hurdat_epa EP182021 8.70000 -86.6000 LO 25 1007 -3 1011 150 50 7 275
2021307N09275 2021 39 EP MM TERRY 2021-11-03 15:00:00 DS 8.70748 -86.9775 main 196 196 P_____________ EP182021 8.70748 -86.9775 LO 27 1007 -3 1011 150 50 8 270
2021307N09275 2021 39 EP MM TERRY 2021-11-03 18:00:00 DS 8.70000 -87.4000 30 1007 hurdat_epa main 230 230 O_____________ hurdat_epa EP182021 8.70000 -87.4000 LO 30 1007 -3 1011 150 50 40 9 268
2021307N09275 2021 39 EP MM TERRY 2021-11-03 21:00:00 DS 8.67752 -87.8576 main 276 276 P_____________ EP182021 8.67752 -87.8576 LO 30 1007 -3 1010 135 50 9 270
2021307N09275 2021 39 EP MM TERRY 2021-11-04 00:00:00 DS 8.70000 -88.3000 30 1007 hurdat_epa main 315 315 O_____________ hurdat_epa EP182021 8.70000 -88.3000 LO 30 1007 -3 1010 120 50 40 8 281
2021307N09275 2021 39 EP MM TERRY 2021-11-04 03:00:00 DS 8.83492 -88.6649 main 351 347 P_____________ EP182021 8.83492 -88.6649 LO 30 1007 -3 1010 120 50 8 293
2021307N09275 2021 39 EP MM TERRY 2021-11-04 06:00:00 TS 9.00000 -89.0000 30 1007 hurdat_epa main 374 374 O_____________ hurdat_epa EP182021 9.00000 -89.0000 TD 30 1007 -1 1010 120 50 40 7 291
2021307N09275 2021 39 EP MM TERRY 2021-11-04 09:00:00 TS 9.09999 -89.3576 main 410 410 P_____________ EP182021 9.09999 -89.3576 TD 30 1007 -1 1010 120 47 7 286
2021307N09275 2021 39 EP MM TERRY 2021-11-04 12:00:00 TS 9.20000 -89.7000 30 1007 hurdat_epa main 437 437 O_____________ hurdat_epa EP182021 9.20000 -89.7000 TD 30 1007 -1 1010 120 45 40 7 291
2021307N09275 2021 39 EP MM TERRY 2021-11-04 15:00:00 TS 9.34997 -90.0150 main 455 441 P_____________ EP182021 9.34997 -90.0150 TD 30 1007 -1 1010 120 42 7 297
2021307N09275 2021 39 EP MM TERRY 2021-11-04 18:00:00 TS 9.50000 -90.3000 30 1007 hurdat_epa main 445 439 O_____________ hurdat_epa EP182021 9.50000 -90.3000 TD 30 1007 -1 1010 120 40 40 6 297
2021307N09275 2021 39 EP MM TERRY 2021-11-04 21:00:00 TS 9.62245 -90.5500 main 445 434 P_____________ EP182021 9.62245 -90.5500 TD 27 1007 -1 1010 120 40 5 292
2021307N09275 2021 39 EP MM TERRY 2021-11-05 00:00:00 TS 9.70000 -90.8000 25 1007 hurdat_epa main 439 439 O_____________ hurdat_epa EP182021 9.70000 -90.8000 TD 25 1007 -1 1010 120 40 40 5 281
2021307N09275 2021 39 EP MM TERRY 2021-11-05 03:00:00 TS 9.72999 -91.0925 main 448 448 P_____________ EP182021 9.72999 -91.0925 TD 25 1007 -1 1010 135 42 6 270
2021307N09275 2021 39 EP MM TERRY 2021-11-05 06:00:00 TS 9.70000 -91.4000 25 1007 hurdat_epa main 459 459 O_____________ hurdat_epa EP182021 9.70000 -91.4000 TD 25 1007 -1 1010 150 45 40 6 259
2021307N09275 2021 39 EP MM TERRY 2021-11-05 09:00:00 TS 9.62241 -91.6775 main 483 483 P_____________ EP182021 9.62241 -91.6775 TD 25 1007 -1 1010 150 45 6 251
2021307N09275 2021 39 EP MM TERRY 2021-11-05 12:00:00 TS 9.50000 -92.0000 25 1007 hurdat_epa main 498 498 O_____________ hurdat_epa EP182021 9.50000 -92.0000 TD 25 1007 -1 1010 150 45 40 8 250
2021307N09275 2021 39 EP MM TERRY 2021-11-05 15:00:00 TS 9.35749 -92.4200 main 518 518 P_____________ EP182021 9.35749 -92.4200 TD 25 1007 -1 1010 150 47 9 251
2021307N09275 2021 39 EP MM TERRY 2021-11-05 18:00:00 TS 9.20000 -92.9000 25 1008 hurdat_epa main 554 554 O_____________ hurdat_epa EP182021 9.20000 -92.9000 TD 25 1008 -1 1011 150 50 40 10 252
2021307N09275 2021 39 EP MM TERRY 2021-11-05 21:00:00 TS 9.04246 -93.3925 main 594 594 P_____________ EP182021 9.04246 -93.3925 TD 25 1008 -1 1011 150 50 10 253
2021307N09275 2021 39 EP MM TERRY 2021-11-06 00:00:00 TS 8.90000 -93.9000 25 1008 hurdat_epa main 627 627 O_____________ hurdat_epa EP182021 8.90000 -93.9000 TD 25 1008 -1 1011 150 50 10 256
2021307N09275 2021 39 EP MM TERRY 2021-11-06 03:00:00 TS 8.79240 -94.3924 main 663 663 P_____________ EP182021 8.79240 -94.3924 TD 27 1007 -1 1011 150 52 10 259
2021307N09275 2021 39 EP MM TERRY 2021-11-06 06:00:00 TS 8.70000 -94.9000 30 1007 hurdat_epa main 702 702 O_____________ hurdat_epa EP182021 8.70000 -94.9000 TD 30 1007 -1 1011 150 55 35 11 259
2021307N09275 2021 39 EP MM TERRY 2021-11-06 09:00:00 TS 8.59995 -95.4425 main 739 739 P_____________ EP182021 8.59995 -95.4425 TD 30 1007 -1 1011 150 55 11 260
2021307N09275 2021 39 EP MM TERRY 2021-11-06 12:00:00 TS 8.50000 -96.0000 30 1007 hurdat_epa main 785 785 O_____________ hurdat_epa EP182021 8.50000 -96.0000 TD 30 1007 -1 1011 150 55 40 11 259
2021307N09275 2021 39 EP MM TERRY 2021-11-06 15:00:00 TS 8.39236 -96.5350 main 806 806 P_____________ EP182021 8.39236 -96.5350 TD 30 1007 -1 1011 165 57 11 260
2021307N09275 2021 39 EP MM TERRY 2021-11-06 18:00:00 TS 8.30000 -97.1000 30 1007 hurdat_epa main 819 819 O_____________ hurdat_epa EP182021 8.30000 -97.1000 TD 30 1007 -1 1011 180 60 40 12 262
2021307N09275 2021 39 EP MM TERRY 2021-11-06 21:00:00 TS 8.23496 -97.7350 main 837 837 P_____________ EP182021 8.23496 -97.7350 TD 30 1007 -1 1011 180 60 13 266
2021307N09275 2021 39 EP MM TERRY 2021-11-07 00:00:00 TS 8.20000 -98.4000 30 1007 hurdat_epa main 851 851 O_____________ hurdat_epa EP182021 8.20000 -98.4000 TD 30 1007 -1 1011 180 60 40 13 268
2021307N09275 2021 39 EP MM TERRY 2021-11-07 03:00:00 TS 8.19243 -99.0575 main 872 872 P_____________ EP182021 8.19243 -99.0575 TD 30 1007 -1 1011 180 60 13 270
2021307N09275 2021 39 EP MM TERRY 2021-11-07 06:00:00 TS 8.20000 -99.7000 30 1007 hurdat_epa main 894 894 O_____________ hurdat_epa EP182021 8.20000 -99.7000 TD 30 1007 -1 1011 180 60 40 12 269
2021307N09275 2021 39 EP MM TERRY 2021-11-07 09:00:00 TS 8.17734 -100.300 main 914 914 P_____________ EP182021 8.17734 -100.300 TD 32 1006 -1 1011 180 57 12 270
2021307N09275 2021 39 EP MM TERRY 2021-11-07 12:00:00 TS 8.20000 -100.900 35 1006 hurdat_epa main 936 936 O_____________ hurdat_epa EP182021 8.20000 -100.900 TS 35 1006 0 60 1011 180 55 40 12 90 12 276
2021307N09275 2021 39 EP MM TERRY 2021-11-07 15:00:00 TS 8.31247 -101.550 main 953 946 P_____________ EP182021 8.31247 -101.550 TS 35 1006 0 60 1011 180 57 12 90 13 283
2021307N09275 2021 39 EP MM TERRY 2021-11-07 18:00:00 TS 8.50000 -102.200 35 1006 hurdat_epa main 956 949 O_____________ hurdat_epa EP182021 8.50000 -102.200 TS 35 1006 0 60 60 1012 180 60 40 12 90 13 289
2021307N09275 2021 39 EP MM TERRY 2021-11-07 21:00:00 TS 8.73487 -102.808 main 956 946 P_____________ EP182021 8.73487 -102.808 TS 35 1006 0 70 1011 180 70 13 293
2021307N09275 2021 39 EP MM TERRY 2021-11-08 00:00:00 TS 9.00000 -103.400 35 1006 hurdat_epa main 950 945 O_____________ hurdat_epa EP182021 9.00000 -103.400 TS 35 1006 0 80 1011 180 80 50 13 294
2021307N09275 2021 39 EP MM TERRY 2021-11-08 03:00:00 TS 9.25732 -103.985 main 949 945 P_____________ EP182021 9.25732 -103.985 TS 35 1006 0 80 1011 180 77 13 293
2021307N09275 2021 39 EP MM TERRY 2021-11-08 06:00:00 TS 9.50000 -104.600 35 1006 hurdat_epa main 951 950 O_____________ hurdat_epa EP182021 9.50000 -104.600 TS 35 1006 0 80 1012 180 75 45 12 90 14 289
2021307N09275 2021 39 EP MM TERRY 2021-11-08 09:00:00 TS 9.70744 -105.285 main 964 959 P_____________ EP182021 9.70744 -105.285 TS 32 1006 -1 1011 180 70 14 286
2021307N09275 2021 39 EP MM TERRY 2021-11-08 12:00:00 TS 9.90000 -106.000 30 1007 hurdat_epa main 977 973 O_____________ hurdat_epa EP182021 9.90000 -106.000 TD 30 1007 -1 1011 180 65 45 15 286
2021307N09275 2021 39 EP MM TERRY 2021-11-08 15:00:00 TS 10.0999 -106.708 main 980 977 P_____________ EP182021 10.0999 -106.708 TD 30 1007 -1 1011 180 62 14 286
2021307N09275 2021 39 EP MM TERRY 2021-11-08 18:00:00 TS 10.3000 -107.400 30 1007 hurdat_epa main 989 988 O_____________ hurdat_epa EP182021 10.3000 -107.400 TD 30 1007 -1 1011 180 60 40 14 287
2021307N09275 2021 39 EP MM TERRY 2021-11-08 21:00:00 TS 10.4999 -108.065 main 1003 999 P_____________ EP182021 10.4999 -108.065 TD 30 1007 -1 1011 195 60 13 287
2021307N09275 2021 39 EP MM TERRY 2021-11-09 00:00:00 TS 10.7000 -108.700 30 1007 hurdat_epa main 1018 1018 O_____________ hurdat_epa EP182021 10.7000 -108.700 TD 30 1007 -1 1011 210 60 40 13 288
2021307N09275 2021 39 EP MM TERRY 2021-11-09 03:00:00 TS 10.9073 -109.308 main 1037 1034 P_____________ EP182021 10.9073 -109.308 TD 30 1007 -1 1011 210 60 12 289
2021307N09275 2021 39 EP MM TERRY 2021-11-09 06:00:00 TS 11.1000 -109.900 30 1007 hurdat_epa main 1058 1058 O_____________ hurdat_epa EP182021 11.1000 -109.900 TD 30 1007 -1 1011 210 60 40 12 287
2021307N09275 2021 39 EP MM TERRY 2021-11-09 09:00:00 TS 11.2649 -110.500 main 1074 1074 P_____________ EP182021 11.2649 -110.500 TD 27 1007 -1 1011 195 65 12 284
2021307N09275 2021 39 EP MM TERRY 2021-11-09 12:00:00 TS 11.4000 -111.100 25 1008 hurdat_epa main 1103 1103 O_____________ hurdat_epa EP182021 11.4000 -111.100 TD 25 1008 -1 1011 180 70 40 12 282
2021307N09275 2021 39 EP MM TERRY 2021-11-09 15:00:00 TS 11.5073 -111.693 main 1135 1135 P_____________ EP182021 11.5073 -111.693 TD 25 1008 -1 1011 180 75 12 280
2021307N09275 2021 39 EP MM TERRY 2021-11-09 18:00:00 TS 11.6000 -112.300 25 1008 hurdat_epa main 1170 1170 O_____________ hurdat_epa EP182021 11.6000 -112.300 TD 25 1008 -1 1011 180 80 35 12 280
2021307N09275 2021 39 EP MM TERRY 2021-11-09 21:00:00 TS 11.7149 -112.942 main 1207 1207 P_____________ EP182021 11.7149 -112.942 TD 25 1008 -1 1011 180 75 13 279
2021307N09275 2021 39 EP MM TERRY 2021-11-10 00:00:00 TS 11.8000 -113.600 25 1008 hurdat_epa main 1252 1252 O_____________ hurdat_epa EP182021 11.8000 -113.600 TD 25 1008 -1 1011 180 70 35 13 275
2021307N09275 2021 39 EP MM TERRY 2021-11-10 03:00:00 TS 11.8222 -114.235 main 1299 1299 P_____________ EP182021 11.8222 -114.235 TD 25 1008 -1 1011 180 65 13 270
2021307N09275 2021 39 EP MM TERRY 2021-11-10 06:00:00 TS 11.8000 -114.900 25 1008 hurdat_epa main 1346 1346 O_____________ hurdat_epa EP182021 11.8000 -114.900 TD 25 1008 -1 1011 180 60 14 267
2021307N09275 2021 39 EP MM TERRY 2021-11-10 09:00:00 TS 11.7555 -115.630 main 1376 1376 P_____________ EP182021 11.7555 -115.630 TD 25 1008 -1 1011 180 60 15 266
2021307N09275 2021 39 EP MM TERRY 2021-11-10 12:00:00 TS 11.7000 -116.400 25 1008 hurdat_epa main 1424 O_____________ hurdat_epa EP182021 11.7000 -116.400 TD 25 1008 -1 1011 180 60 35 15 266

IBTrACS Databaseについて

本データベースは、米国NOAAが公開する1842年以降の世界の熱帯低気圧のベストトラックデータアーカイブInternational Best Track Archive for Climate Stewardship (IBTrACS)を、ウェブで閲覧しやすい形式に変換したものです。

最終更新日:2022-05-26